Cloverly, Maryland
Current Conditions -  °F | °C
As of 12:00 PM on Monday 22 Dec 2014 (Local Time) from KCGS Reporting Station
Overcast Overcast  
Wind Chill: 32°   Ceiling: 4400
Heat Index: 36°   Visibility: 7mi
Dew Point: 30°   Wind: 5mph
Humidity: 81%   Direction: 360°N
Pressure: 30.25"   Gusts: NA
Location:  39.066°N, 76.9783°W
Report Text: KCGS 221700Z AUTO 36004KT 7SM BKN044 OVC050 02/M01 A3025 RMK AO1
Loading
Personal Weather Stations






























Interactive Weather Map New forecast layout! Learn more

10-Day Weather Forecast

Advertisements
Track Severe Weather on mobile